sensor_id;sensor_type;location;lat;lon;timestamp;temperature;humidity
7317;DHT22;3699;51.462;6.696;2024-03-22T00:00:06;11.90;99.90
7317;DHT22;3699;51.462;6.696;2024-03-22T00:02:31;11.80;99.90
7317;DHT22;3699;51.462;6.696;2024-03-22T00:04:58;12.00;99.90
7317;DHT22;3699;51.462;6.696;2024-03-22T00:07:24;12.00;99.90
7317;DHT22;3699;51.462;6.696;2024-03-22T00:14:44;12.20;99.90
7317;DHT22;3699;51.462;6.696;2024-03-22T00:17:11;12.00;99.90
7317;DHT22;3699;51.462;6.696;2024-03-22T00:22:04;12.10;99.90
7317;DHT22;3699;51.462;6.696;2024-03-22T00:29:24;12.10;99.90
7317;DHT22;3699;51.462;6.696;2024-03-22T00:34:20;12.10;99.90
7317;DHT22;3699;51.462;6.696;2024-03-22T00:36:45;12.00;99.90
7317;DHT22;3699;51.462;6.696;2024-03-22T00:44:05;12.10;99.90
7317;DHT22;3699;51.462;6.696;2024-03-22T00:48:58;12.00;99.90
7317;DHT22;3699;51.462;6.696;2024-03-22T00:51:25;12.10;99.90
7317;DHT22;3699;51.462;6.696;2024-03-22T00:53:52;12.10;99.90
7317;DHT22;3699;51.462;6.696;2024-03-22T00:58:45;12.10;99.90
7317;DHT22;3699;51.462;6.696;2024-03-22T01:03:38;12.00;99.90
7317;DHT22;3699;51.462;6.696;2024-03-22T01:06:05;12.10;99.90
7317;DHT22;3699;51.462;6.696;2024-03-22T01:08:34;12.10;99.90
7317;DHT22;3699;51.462;6.696;2024-03-22T01:10:59;12.10;99.90
7317;DHT22;3699;51.462;6.696;2024-03-22T01:18:19;12.10;99.90
7317;DHT22;3699;51.462;6.696;2024-03-22T01:23:12;12.10;99.90
7317;DHT22;3699;51.462;6.696;2024-03-22T01:25:39;12.00;99.90
7317;DHT22;3699;51.462;6.696;2024-03-22T01:37:54;11.80;99.90
7317;DHT22;3699;51.462;6.696;2024-03-22T01:42:52;12.00;99.90
7317;DHT22;3699;51.462;6.696;2024-03-22T01:52:39;12.00;99.90
7317;DHT22;3699;51.462;6.696;2024-03-22T01:55:07;12.10;99.90
7317;DHT22;3699;51.462;6.696;2024-03-22T01:57:33;12.00;99.90
7317;DHT22;3699;51.462;6.696;2024-03-22T02:00:01;12.00;99.90
7317;DHT22;3699;51.462;6.696;2024-03-22T02:02:28;12.00;99.90
7317;DHT22;3699;51.462;6.696;2024-03-22T02:04:54;12.00;99.90
7317;DHT22;3699;51.462;6.696;2024-03-22T02:07:20;12.00;99.90
7317;DHT22;3699;51.462;6.696;2024-03-22T02:09:46;12.00;99.90
7317;DHT22;3699;51.462;6.696;2024-03-22T02:12:13;12.00;99.90
7317;DHT22;3699;51.462;6.696;2024-03-22T02:14:39;12.10;99.90
7317;DHT22;3699;51.462;6.696;2024-03-22T02:17:07;12.00;99.90
7317;DHT22;3699;51.462;6.696;2024-03-22T02:22:00;12.00;99.90
7317;DHT22;3699;51.462;6.696;2024-03-22T02:24:27;12.10;99.90
7317;DHT22;3699;51.462;6.696;2024-03-22T02:36:40;12.10;99.90
7317;DHT22;3699;51.462;6.696;2024-03-22T02:41:34;12.00;99.90
7317;DHT22;3699;51.462;6.696;2024-03-22T02:44:01;12.00;99.90
7317;DHT22;3699;51.462;6.696;2024-03-22T02:46:28;12.00;99.90
7317;DHT22;3699;51.462;6.696;2024-03-22T02:48:53;12.00;99.90
7317;DHT22;3699;51.462;6.696;2024-03-22T02:51:20;12.40;99.90
7317;DHT22;3699;51.462;6.696;2024-03-22T02:58:41;12.00;99.90
7317;DHT22;3699;51.462;6.696;2024-03-22T03:01:07;12.10;99.90
7317;DHT22;3699;51.462;6.696;2024-03-22T03:03:33;12.00;99.90
7317;DHT22;3699;51.462;6.696;2024-03-22T03:08:26;12.00;99.90
7317;DHT22;3699;51.462;6.696;2024-03-22T03:13:20;12.20;99.90
7317;DHT22;3699;51.462;6.696;2024-03-22T03:15:49;12.10;99.90
7317;DHT22;3699;51.462;6.696;2024-03-22T03:18:14;11.90;99.90
7317;DHT22;3699;51.462;6.696;2024-03-22T03:20:41;11.90;99.90
7317;DHT22;3699;51.462;6.696;2024-03-22T03:23:07;11.90;99.90
7317;DHT22;3699;51.462;6.696;2024-03-22T03:25:34;11.90;99.90
7317;DHT22;3699;51.462;6.696;2024-03-22T03:27:59;11.80;99.90
7317;DHT22;3699;51.462;6.696;2024-03-22T03:30:26;11.90;99.90
7317;DHT22;3699;51.462;6.696;2024-03-22T03:32:53;11.80;99.90
7317;DHT22;3699;51.462;6.696;2024-03-22T03:40:13;11.80;99.90
7317;DHT22;3699;51.462;6.696;2024-03-22T03:45:06;11.80;99.90
7317;DHT22;3699;51.462;6.696;2024-03-22T03:47:32;11.80;99.90
7317;DHT22;3699;51.462;6.696;2024-03-22T03:50:01;11.80;99.90
7317;DHT22;3699;51.462;6.696;2024-03-22T03:54:53;12.00;99.90
7317;DHT22;3699;51.462;6.696;2024-03-22T03:57:19;11.90;99.90
7317;DHT22;3699;51.462;6.696;2024-03-22T03:59:46;11.80;99.90
7317;DHT22;3699;51.462;6.696;2024-03-22T04:04:39;11.80;99.90
7317;DHT22;3699;51.462;6.696;2024-03-22T04:07:06;11.80;99.90
7317;DHT22;3699;51.462;6.696;2024-03-22T04:09:33;11.90;99.90
7317;DHT22;3699;51.462;6.696;2024-03-22T04:11:59;11.80;99.90
7317;DHT22;3699;51.462;6.696;2024-03-22T04:14:26;11.80;99.90
7317;DHT22;3699;51.462;6.696;2024-03-22T04:16:51;11.80;99.90
7317;DHT22;3699;51.462;6.696;2024-03-22T04:19:20;11.80;99.90
7317;DHT22;3699;51.462;6.696;2024-03-22T04:21:46;11.90;99.90
7317;DHT22;3699;51.462;6.696;2024-03-22T04:24:14;11.70;99.90
7317;DHT22;3699;51.462;6.696;2024-03-22T04:26:40;11.70;99.90
7317;DHT22;3699;51.462;6.696;2024-03-22T04:34:00;11.90;99.90
7317;DHT22;3699;51.462;6.696;2024-03-22T04:36:25;11.90;99.90
7317;DHT22;3699;51.462;6.696;2024-03-22T04:38:52;11.70;99.90
7317;DHT22;3699;51.462;6.696;2024-03-22T04:41:20;11.80;99.90
7317;DHT22;3699;51.462;6.696;2024-03-22T04:43:50;11.70;99.90
7317;DHT22;3699;51.462;6.696;2024-03-22T04:46:17;11.70;99.90
7317;DHT22;3699;51.462;6.696;2024-03-22T04:48:42;11.80;99.90
7317;DHT22;3699;51.462;6.696;2024-03-22T04:51:09;11.90;99.90
7317;DHT22;3699;51.462;6.696;2024-03-22T04:58:30;11.60;99.90
7317;DHT22;3699;51.462;6.696;2024-03-22T05:00:57;11.90;99.90
7317;DHT22;3699;51.462;6.696;2024-03-22T05:03:24;12.00;99.90
7317;DHT22;3699;51.462;6.696;2024-03-22T05:08:17;11.90;99.90
7317;DHT22;3699;51.462;6.696;2024-03-22T05:10:43;11.90;99.90
7317;DHT22;3699;51.462;6.696;2024-03-22T05:13:10;12.00;99.90
7317;DHT22;3699;51.462;6.696;2024-03-22T05:15:37;11.90;99.90
7317;DHT22;3699;51.462;6.696;2024-03-22T05:18:04;12.00;99.90
7317;DHT22;3699;51.462;6.696;2024-03-22T05:27:51;12.00;99.90
7317;DHT22;3699;51.462;6.696;2024-03-22T05:30:17;12.10;99.90
7317;DHT22;3699;51.462;6.696;2024-03-22T05:32:45;12.10;99.90
7317;DHT22;3699;51.462;6.696;2024-03-22T05:40:06;12.20;99.90
7317;DHT22;3699;51.462;6.696;2024-03-22T05:47:28;12.20;99.90
7317;DHT22;3699;51.462;6.696;2024-03-22T05:49:55;12.30;99.90
7317;DHT22;3699;51.462;6.696;2024-03-22T05:52:21;12.50;99.90
7317;DHT22;3699;51.462;6.696;2024-03-22T05:54:47;12.30;99.90
7317;DHT22;3699;51.462;6.696;2024-03-22T05:57:14;12.40;99.90
7317;DHT22;3699;51.462;6.696;2024-03-22T06:02:07;12.60;99.90
7317;DHT22;3699;51.462;6.696;2024-03-22T06:07:03;12.50;99.90
7317;DHT22;3699;51.462;6.696;2024-03-22T06:09:30;12.50;99.90
7317;DHT22;3699;51.462;6.696;2024-03-22T06:14:28;12.60;99.90
7317;DHT22;3699;51.462;6.696;2024-03-22T06:19:21;12.80;99.90
7317;DHT22;3699;51.462;6.696;2024-03-22T06:24:16;12.50;99.90
7317;DHT22;3699;51.462;6.696;2024-03-22T06:26:42;12.80;99.90
7317;DHT22;3699;51.462;6.696;2024-03-22T06:36:29;13.00;99.90
7317;DHT22;3699;51.462;6.696;2024-03-22T06:38:55;13.10;99.90
7317;DHT22;3699;51.462;6.696;2024-03-22T06:41:23;13.00;99.90
7317;DHT22;3699;51.462;6.696;2024-03-22T06:44:04;13.10;99.90
7317;DHT22;3699;51.462;6.696;2024-03-22T06:46:31;13.10;99.90
7317;DHT22;3699;51.462;6.696;2024-03-22T06:48:57;13.20;99.90
7317;DHT22;3699;51.462;6.696;2024-03-22T06:51:24;13.20;99.90
7317;DHT22;3699;51.462;6.696;2024-03-22T06:53:50;13.50;99.90
7317;DHT22;3699;51.462;6.696;2024-03-22T06:56:17;13.60;99.90
7317;DHT22;3699;51.462;6.696;2024-03-22T06:58:44;13.60;99.90
7317;DHT22;3699;51.462;6.696;2024-03-22T07:06:05;14.20;99.90
7317;DHT22;3699;51.462;6.696;2024-03-22T07:11:00;14.40;99.90
7317;DHT22;3699;51.462;6.696;2024-03-22T07:13:30;14.50;99.90
7317;DHT22;3699;51.462;6.696;2024-03-22T07:15:58;14.50;99.90
7317;DHT22;3699;51.462;6.696;2024-03-22T07:20:51;14.50;99.90
7317;DHT22;3699;51.462;6.696;2024-03-22T07:23:17;14.60;99.90
7317;DHT22;3699;51.462;6.696;2024-03-22T07:25:44;14.70;99.90
7317;DHT22;3699;51.462;6.696;2024-03-22T07:28:11;14.50;99.90
7317;DHT22;3699;51.462;6.696;2024-03-22T07:30:38;14.60;99.90
7317;DHT22;3699;51.462;6.696;2024-03-22T07:33:05;14.50;99.90
7317;DHT22;3699;51.462;6.696;2024-03-22T07:35:34;14.60;99.90
7317;DHT22;3699;51.462;6.696;2024-03-22T07:38:00;14.50;99.90
7317;DHT22;3699;51.462;6.696;2024-03-22T07:40:27;14.50;99.90
7317;DHT22;3699;51.462;6.696;2024-03-22T07:42:52;14.60;99.90
7317;DHT22;3699;51.462;6.696;2024-03-22T07:45:19;14.70;99.90
7317;DHT22;3699;51.462;6.696;2024-03-22T07:50:14;14.70;99.90
7317;DHT22;3699;51.462;6.696;2024-03-22T07:52:40;14.80;99.90
7317;DHT22;3699;51.462;6.696;2024-03-22T07:55:07;14.90;99.90
7317;DHT22;3699;51.462;6.696;2024-03-22T08:02:56;15.10;99.90
7317;DHT22;3699;51.462;6.696;2024-03-22T08:05:25;15.00;99.90
7317;DHT22;3699;51.462;6.696;2024-03-22T08:07:50;14.90;99.90
7317;DHT22;3699;51.462;6.696;2024-03-22T08:10:17;14.90;99.90
7317;DHT22;3699;51.462;6.696;2024-03-22T08:15:10;14.90;99.90
7317;DHT22;3699;51.462;6.696;2024-03-22T08:17:36;14.90;99.90
7317;DHT22;3699;51.462;6.696;2024-03-22T08:20:03;14.80;99.90
7317;DHT22;3699;51.462;6.696;2024-03-22T08:22:31;14.80;99.90
7317;DHT22;3699;51.462;6.696;2024-03-22T08:24:58;14.80;99.90
7317;DHT22;3699;51.462;6.696;2024-03-22T08:27:23;14.80;99.90
7317;DHT22;3699;51.462;6.696;2024-03-22T08:29:50;14.90;99.90
7317;DHT22;3699;51.462;6.696;2024-03-22T08:34:43;15.00;99.90
7317;DHT22;3699;51.462;6.696;2024-03-22T08:39:37;15.20;99.90
7317;DHT22;3699;51.462;6.696;2024-03-22T08:42:03;15.30;99.90
7317;DHT22;3699;51.462;6.696;2024-03-22T08:44:30;15.30;99.90
7317;DHT22;3699;51.462;6.696;2024-03-22T08:46:56;15.40;99.90
7317;DHT22;3699;51.462;6.696;2024-03-22T08:49:23;15.40;99.90
7317;DHT22;3699;51.462;6.696;2024-03-22T08:51:49;15.40;99.90
7317;DHT22;3699;51.462;6.696;2024-03-22T08:54:16;15.60;99.90
7317;DHT22;3699;51.462;6.696;2024-03-22T08:56:43;15.40;99.90
7317;DHT22;3699;51.462;6.696;2024-03-22T08:59:09;15.40;99.90
7317;DHT22;3699;51.462;6.696;2024-03-22T09:01:35;15.50;99.90
7317;DHT22;3699;51.462;6.696;2024-03-22T09:04:03;15.60;99.90
7317;DHT22;3699;51.462;6.696;2024-03-22T09:06:28;15.70;99.90
7317;DHT22;3699;51.462;6.696;2024-03-22T09:08:56;16.00;99.90
7317;DHT22;3699;51.462;6.696;2024-03-22T09:13:53;16.20;99.90
7317;DHT22;3699;51.462;6.696;2024-03-22T09:16:19;16.50;99.90
7317;DHT22;3699;51.462;6.696;2024-03-22T09:18:46;16.50;99.90
7317;DHT22;3699;51.462;6.696;2024-03-22T09:21:12;16.80;99.90
7317;DHT22;3699;51.462;6.696;2024-03-22T09:23:38;17.00;99.90
7317;DHT22;3699;51.462;6.696;2024-03-22T09:26:04;17.20;99.90
7317;DHT22;3699;51.462;6.696;2024-03-22T09:31:03;17.20;95.00
7317;DHT22;3699;51.462;6.696;2024-03-22T09:35:57;17.00;98.80
7317;DHT22;3699;51.462;6.696;2024-03-22T09:43:20;17.00;99.90
7317;DHT22;3699;51.462;6.696;2024-03-22T09:45:47;17.00;99.90
7317;DHT22;3699;51.462;6.696;2024-03-22T09:48:16;16.90;99.90
7317;DHT22;3699;51.462;6.696;2024-03-22T09:53:10;16.90;99.40
7317;DHT22;3699;51.462;6.696;2024-03-22T09:55:36;16.70;99.90
7317;DHT22;3699;51.462;6.696;2024-03-22T10:00:31;16.70;99.90
7317;DHT22;3699;51.462;6.696;2024-03-22T10:02:58;16.80;99.90
7317;DHT22;3699;51.462;6.696;2024-03-22T10:05:25;16.80;99.90
7317;DHT22;3699;51.462;6.696;2024-03-22T10:07:52;16.80;99.90
7317;DHT22;3699;51.462;6.696;2024-03-22T10:10:19;16.80;99.90
7317;DHT22;3699;51.462;6.696;2024-03-22T10:12:46;16.90;99.90
7317;DHT22;3699;51.462;6.696;2024-03-22T10:15:11;16.90;99.90
7317;DHT22;3699;51.462;6.696;2024-03-22T10:17:45;16.90;99.90
7317;DHT22;3699;51.462;6.696;2024-03-22T10:20:13;16.80;99.90
7317;DHT22;3699;51.462;6.696;2024-03-22T10:22:43;16.70;99.90
7317;DHT22;3699;51.462;6.696;2024-03-22T10:25:09;16.70;99.90
7317;DHT22;3699;51.462;6.696;2024-03-22T10:27:38;16.70;99.90
7317;DHT22;3699;51.462;6.696;2024-03-22T10:30:08;16.70;99.90
7317;DHT22;3699;51.462;6.696;2024-03-22T10:32:36;16.70;99.90
7317;DHT22;3699;51.462;6.696;2024-03-22T10:35:02;16.70;99.90
7317;DHT22;3699;51.462;6.696;2024-03-22T10:37:32;16.70;99.90
7317;DHT22;3699;51.462;6.696;2024-03-22T10:40:01;16.80;99.90
7317;DHT22;3699;51.462;6.696;2024-03-22T10:47:30;16.90;99.90
7317;DHT22;3699;51.462;6.696;2024-03-22T10:49:58;16.90;99.90
7317;DHT22;3699;51.462;6.696;2024-03-22T10:52:27;16.90;99.90
7317;DHT22;3699;51.462;6.696;2024-03-22T10:54:53;16.80;99.90
7317;DHT22;3699;51.462;6.696;2024-03-22T10:57:22;16.70;99.90
7317;DHT22;3699;51.462;6.696;2024-03-22T10:59:48;16.80;99.90
7317;DHT22;3699;51.462;6.696;2024-03-22T11:02:17;16.80;99.90
7317;DHT22;3699;51.462;6.696;2024-03-22T11:04:43;16.80;99.90
7317;DHT22;3699;51.462;6.696;2024-03-22T11:07:20;16.70;99.90
7317;DHT22;3699;51.462;6.696;2024-03-22T11:09:52;16.80;99.90
7317;DHT22;3699;51.462;6.696;2024-03-22T11:14:47;16.80;99.90
7317;DHT22;3699;51.462;6.696;2024-03-22T11:17:15;16.80;99.90
7317;DHT22;3699;51.462;6.696;2024-03-22T11:19:41;16.60;99.90
7317;DHT22;3699;51.462;6.696;2024-03-22T11:22:08;16.50;99.90
7317;DHT22;3699;51.462;6.696;2024-03-22T11:24:33;16.50;99.90
7317;DHT22;3699;51.462;6.696;2024-03-22T11:27:03;16.30;99.90
7317;DHT22;3699;51.462;6.696;2024-03-22T11:29:29;16.20;99.90
7317;DHT22;3699;51.462;6.696;2024-03-22T11:31:57;16.10;99.90
7317;DHT22;3699;51.462;6.696;2024-03-22T11:36:50;15.80;99.90
7317;DHT22;3699;51.462;6.696;2024-03-22T11:39:17;15.70;99.90
7317;DHT22;3699;51.462;6.696;2024-03-22T11:46:39;15.30;99.90
7317;DHT22;3699;51.462;6.696;2024-03-22T11:49:06;15.30;99.90
7317;DHT22;3699;51.462;6.696;2024-03-22T11:51:33;15.30;99.90
7317;DHT22;3699;51.462;6.696;2024-03-22T11:54:03;15.30;99.90
7317;DHT22;3699;51.462;6.696;2024-03-22T11:58:58;15.30;99.90
7317;DHT22;3699;51.462;6.696;2024-03-22T12:01:26;15.10;99.90
7317;DHT22;3699;51.462;6.696;2024-03-22T12:03:52;15.20;99.90
7317;DHT22;3699;51.462;6.696;2024-03-22T12:06:21;15.10;99.90
7317;DHT22;3699;51.462;6.696;2024-03-22T12:08:47;15.10;99.90
7317;DHT22;3699;51.462;6.696;2024-03-22T12:11:14;15.00;99.90
7317;DHT22;3699;51.462;6.696;2024-03-22T12:16:07;14.80;99.90
7317;DHT22;3699;51.462;6.696;2024-03-22T12:18:33;14.80;99.90
7317;DHT22;3699;51.462;6.696;2024-03-22T12:21:00;14.70;99.90
7317;DHT22;3699;51.462;6.696;2024-03-22T12:23:27;14.60;99.90
7317;DHT22;3699;51.462;6.696;2024-03-22T12:28:21;14.50;99.90
7317;DHT22;3699;51.462;6.696;2024-03-22T12:30:48;14.60;99.90
7317;DHT22;3699;51.462;6.696;2024-03-22T12:33:14;14.40;99.90
7317;DHT22;3699;51.462;6.696;2024-03-22T12:38:08;14.50;99.90
7317;DHT22;3699;51.462;6.696;2024-03-22T12:40:37;14.30;99.90
7317;DHT22;3699;51.462;6.696;2024-03-22T12:43:03;14.30;99.90
7317;DHT22;3699;51.462;6.696;2024-03-22T12:45:31;14.40;99.90
7317;DHT22;3699;51.462;6.696;2024-03-22T12:47:58;14.30;99.90
7317;DHT22;3699;51.462;6.696;2024-03-22T12:50:24;14.50;99.90
7317;DHT22;3699;51.462;6.696;2024-03-22T12:52:50;14.40;99.90
7317;DHT22;3699;51.462;6.696;2024-03-22T12:57:45;14.50;99.90
7317;DHT22;3699;51.462;6.696;2024-03-22T13:00:12;14.20;99.90
7317;DHT22;3699;51.462;6.696;2024-03-22T13:02:39;14.30;99.90
7317;DHT22;3699;51.462;6.696;2024-03-22T13:05:06;14.30;99.90
7317;DHT22;3699;51.462;6.696;2024-03-22T13:07:32;14.30;99.90
7317;DHT22;3699;51.462;6.696;2024-03-22T13:09:59;14.20;99.90
7317;DHT22;3699;51.462;6.696;2024-03-22T13:12:25;14.30;99.90
7317;DHT22;3699;51.462;6.696;2024-03-22T13:17:53;14.00;99.90
7317;DHT22;3699;51.462;6.696;2024-03-22T13:20:21;14.10;99.90
7317;DHT22;3699;51.462;6.696;2024-03-22T13:25:14;13.80;99.90
7317;DHT22;3699;51.462;6.696;2024-03-22T13:27:41;13.80;99.90
7317;DHT22;3699;51.462;6.696;2024-03-22T13:30:07;13.90;99.90
7317;DHT22;3699;51.462;6.696;2024-03-22T13:35:03;13.70;99.90
7317;DHT22;3699;51.462;6.696;2024-03-22T13:39:56;13.60;99.90
7317;DHT22;3699;51.462;6.696;2024-03-22T13:42:23;13.70;99.90
7317;DHT22;3699;51.462;6.696;2024-03-22T13:44:49;13.70;99.90
7317;DHT22;3699;51.462;6.696;2024-03-22T13:47:16;13.60;99.90
7317;DHT22;3699;51.462;6.696;2024-03-22T13:49:43;13.80;99.90
7317;DHT22;3699;51.462;6.696;2024-03-22T13:52:11;13.60;99.90
7317;DHT22;3699;51.462;6.696;2024-03-22T14:01:58;13.60;99.90
7317;DHT22;3699;51.462;6.696;2024-03-22T14:06:52;13.60;99.90
7317;DHT22;3699;51.462;6.696;2024-03-22T14:09:19;13.60;99.90
7317;DHT22;3699;51.462;6.696;2024-03-22T14:14:14;13.50;99.90
7317;DHT22;3699;51.462;6.696;2024-03-22T14:21:35;13.50;99.90
7317;DHT22;3699;51.462;6.696;2024-03-22T14:24:00;13.30;99.90
7317;DHT22;3699;51.462;6.696;2024-03-22T14:26:30;13.40;99.90
7317;DHT22;3699;51.462;6.696;2024-03-22T14:28:55;13.40;99.90
7317;DHT22;3699;51.462;6.696;2024-03-22T14:31:22;13.30;99.90
7317;DHT22;3699;51.462;6.696;2024-03-22T14:33:48;13.20;99.90
7317;DHT22;3699;51.462;6.696;2024-03-22T14:36:14;13.40;99.90
7317;DHT22;3699;51.462;6.696;2024-03-22T14:38:40;13.30;99.90
7317;DHT22;3699;51.462;6.696;2024-03-22T14:41:07;13.20;99.90
7317;DHT22;3699;51.462;6.696;2024-03-22T14:43:34;13.20;99.90
7317;DHT22;3699;51.462;6.696;2024-03-22T14:46:02;13.60;99.90
7317;DHT22;3699;51.462;6.696;2024-03-22T14:48:28;13.40;99.90
7317;DHT22;3699;51.462;6.696;2024-03-22T14:50:55;13.10;99.90
7317;DHT22;3699;51.462;6.696;2024-03-22T14:53:21;13.10;99.90
7317;DHT22;3699;51.462;6.696;2024-03-22T14:55:54;13.10;99.90
7317;DHT22;3699;51.462;6.696;2024-03-22T14:58:23;13.10;99.90
7317;DHT22;3699;51.462;6.696;2024-03-22T15:00:56;13.20;99.90
7317;DHT22;3699;51.462;6.696;2024-03-22T15:03:22;13.20;99.90
7317;DHT22;3699;51.462;6.696;2024-03-22T15:05:50;13.30;99.90
7317;DHT22;3699;51.462;6.696;2024-03-22T15:10:49;13.10;99.90
7317;DHT22;3699;51.462;6.696;2024-03-22T15:13:16;13.10;99.90
7317;DHT22;3699;51.462;6.696;2024-03-22T15:15:51;13.20;99.90
7317;DHT22;3699;51.462;6.696;2024-03-22T15:18:19;13.00;99.90
7317;DHT22;3699;51.462;6.696;2024-03-22T15:20:46;13.00;99.90
7317;DHT22;3699;51.462;6.696;2024-03-22T15:25:39;13.00;99.90
7317;DHT22;3699;51.462;6.696;2024-03-22T15:28:05;13.10;99.90
7317;DHT22;3699;51.462;6.696;2024-03-22T15:35:27;13.10;99.90
7317;DHT22;3699;51.462;6.696;2024-03-22T15:37:53;12.90;99.90
7317;DHT22;3699;51.462;6.696;2024-03-22T15:42:46;12.70;99.90
7317;DHT22;3699;51.462;6.696;2024-03-22T15:50:06;12.90;99.90
7317;DHT22;3699;51.462;6.696;2024-03-22T15:52:34;12.90;99.90
7317;DHT22;3699;51.462;6.696;2024-03-22T15:55:00;12.80;99.90
7317;DHT22;3699;51.462;6.696;2024-03-22T15:59:54;12.80;99.90
7317;DHT22;3699;51.462;6.696;2024-03-22T16:02:19;12.90;99.90
7317;DHT22;3699;51.462;6.696;2024-03-22T16:04:47;12.70;99.90
7317;DHT22;3699;51.462;6.696;2024-03-22T16:09:41;12.80;99.90
7317;DHT22;3699;51.462;6.696;2024-03-22T16:19:32;12.60;99.90
7317;DHT22;3699;51.462;6.696;2024-03-22T16:21:57;12.60;99.90
7317;DHT22;3699;51.462;6.696;2024-03-22T16:24:24;12.60;99.90
7317;DHT22;3699;51.462;6.696;2024-03-22T16:26:51;12.80;99.90
7317;DHT22;3699;51.462;6.696;2024-03-22T16:29:18;12.50;99.90
7317;DHT22;3699;51.462;6.696;2024-03-22T16:31:45;12.50;99.90
7317;DHT22;3699;51.462;6.696;2024-03-22T16:34:12;12.50;99.90
7317;DHT22;3699;51.462;6.696;2024-03-22T16:36:37;12.40;99.90
7317;DHT22;3699;51.462;6.696;2024-03-22T16:39:04;12.50;99.90
7317;DHT22;3699;51.462;6.696;2024-03-22T16:41:30;12.40;99.90
7317;DHT22;3699;51.462;6.696;2024-03-22T16:43:58;12.40;99.90
7317;DHT22;3699;51.462;6.696;2024-03-22T16:48:51;12.40;99.90
7317;DHT22;3699;51.462;6.696;2024-03-22T16:51:17;12.30;99.90
7317;DHT22;3699;51.462;6.696;2024-03-22T16:53:43;12.20;99.90
7317;DHT22;3699;51.462;6.696;2024-03-22T16:56:09;12.30;99.90
7317;DHT22;3699;51.462;6.696;2024-03-22T16:58:36;12.20;99.90
7317;DHT22;3699;51.462;6.696;2024-03-22T17:01:04;12.20;99.90
7317;DHT22;3699;51.462;6.696;2024-03-22T17:03:31;12.20;99.90
7317;DHT22;3699;51.462;6.696;2024-03-22T17:05:56;12.20;99.90
7317;DHT22;3699;51.462;6.696;2024-03-22T17:08:23;12.20;99.90
7317;DHT22;3699;51.462;6.696;2024-03-22T17:10:49;12.10;99.90
7317;DHT22;3699;51.462;6.696;2024-03-22T17:15:44;12.20;99.90
7317;DHT22;3699;51.462;6.696;2024-03-22T17:18:12;12.00;99.90
7317;DHT22;3699;51.462;6.696;2024-03-22T17:20:37;12.00;99.90
7317;DHT22;3699;51.462;6.696;2024-03-22T17:25:33;12.00;99.90
7317;DHT22;3699;51.462;6.696;2024-03-22T17:30:26;12.00;99.90
7317;DHT22;3699;51.462;6.696;2024-03-22T17:35:20;11.90;99.90
7317;DHT22;3699;51.462;6.696;2024-03-22T17:37:47;11.90;99.90
7317;DHT22;3699;51.462;6.696;2024-03-22T17:42:41;11.70;99.90
7317;DHT22;3699;51.462;6.696;2024-03-22T17:45:08;11.70;99.90
7317;DHT22;3699;51.462;6.696;2024-03-22T17:47:35;12.00;99.90
7317;DHT22;3699;51.462;6.696;2024-03-22T17:52:30;11.70;99.90
7317;DHT22;3699;51.462;6.696;2024-03-22T17:54:55;11.60;99.90
7317;DHT22;3699;51.462;6.696;2024-03-22T17:57:22;11.60;99.90
7317;DHT22;3699;51.462;6.696;2024-03-22T17:59:49;11.60;99.90
7317;DHT22;3699;51.462;6.696;2024-03-22T18:02:15;11.60;99.90
7317;DHT22;3699;51.462;6.696;2024-03-22T18:09:36;11.40;99.90
7317;DHT22;3699;51.462;6.696;2024-03-22T18:12:03;11.40;99.90
7317;DHT22;3699;51.462;6.696;2024-03-22T18:14:30;11.50;99.90
7317;DHT22;3699;51.462;6.696;2024-03-22T18:16:56;11.30;99.90
7317;DHT22;3699;51.462;6.696;2024-03-22T18:21:50;11.20;99.90
7317;DHT22;3699;51.462;6.696;2024-03-22T18:24:19;11.40;99.90
7317;DHT22;3699;51.462;6.696;2024-03-22T18:26:47;11.20;99.90
7317;DHT22;3699;51.462;6.696;2024-03-22T18:29:13;11.20;99.90
7317;DHT22;3699;51.462;6.696;2024-03-22T18:31:39;11.10;99.90
7317;DHT22;3699;51.462;6.696;2024-03-22T18:34:05;11.10;99.90
7317;DHT22;3699;51.462;6.696;2024-03-22T18:36:32;11.10;99.90
7317;DHT22;3699;51.462;6.696;2024-03-22T18:38:58;11.10;99.90
7317;DHT22;3699;51.462;6.696;2024-03-22T18:41:24;11.10;99.90
7317;DHT22;3699;51.462;6.696;2024-03-22T18:43:52;11.10;99.90
7317;DHT22;3699;51.462;6.696;2024-03-22T18:46:18;11.00;99.90
7317;DHT22;3699;51.462;6.696;2024-03-22T18:53:39;11.00;99.90
7317;DHT22;3699;51.462;6.696;2024-03-22T18:58:32;11.00;99.90
7317;DHT22;3699;51.462;6.696;2024-03-22T19:01:01;11.00;99.90
7317;DHT22;3699;51.462;6.696;2024-03-22T19:05:53;11.00;99.90
7317;DHT22;3699;51.462;6.696;2024-03-22T19:10:47;7.80;99.90
7317;DHT22;3699;51.462;6.696;2024-03-22T19:13:13;10.80;99.90
7317;DHT22;3699;51.462;6.696;2024-03-22T19:18:09;10.90;99.90
7317;DHT22;3699;51.462;6.696;2024-03-22T19:23:03;10.90;99.90
7317;DHT22;3699;51.462;6.696;2024-03-22T19:25:30;10.80;99.90
7317;DHT22;3699;51.462;6.696;2024-03-22T19:27:56;10.90;99.90
7317;DHT22;3699;51.462;6.696;2024-03-22T19:32:49;10.80;99.90
7317;DHT22;3699;51.462;6.696;2024-03-22T19:35:17;10.80;99.90
7317;DHT22;3699;51.462;6.696;2024-03-22T19:40:11;10.90;99.90
7317;DHT22;3699;51.462;6.696;2024-03-22T19:42:37;10.90;99.90
7317;DHT22;3699;51.462;6.696;2024-03-22T19:45:04;10.80;99.90
7317;DHT22;3699;51.462;6.696;2024-03-22T19:47:30;11.00;99.90
7317;DHT22;3699;51.462;6.696;2024-03-22T19:49:57;10.80;99.90
7317;DHT22;3699;51.462;6.696;2024-03-22T19:52:24;10.80;99.90
7317;DHT22;3699;51.462;6.696;2024-03-22T19:54:50;10.80;99.90
7317;DHT22;3699;51.462;6.696;2024-03-22T19:59:43;10.70;99.90
7317;DHT22;3699;51.462;6.696;2024-03-22T20:02:09;10.80;99.90
7317;DHT22;3699;51.462;6.696;2024-03-22T20:04:36;10.80;99.90
7317;DHT22;3699;51.462;6.696;2024-03-22T20:07:01;10.80;99.90
7317;DHT22;3699;51.462;6.696;2024-03-22T20:09:33;10.80;99.90
7317;DHT22;3699;51.462;6.696;2024-03-22T20:11:59;10.80;99.90
7317;DHT22;3699;51.462;6.696;2024-03-22T20:14:25;10.60;99.90
7317;DHT22;3699;51.462;6.696;2024-03-22T20:16:51;10.70;99.90
7317;DHT22;3699;51.462;6.696;2024-03-22T20:19:19;10.70;99.90
7317;DHT22;3699;51.462;6.696;2024-03-22T20:21:45;10.70;99.90
7317;DHT22;3699;51.462;6.696;2024-03-22T20:24:12;10.70;99.90
7317;DHT22;3699;51.462;6.696;2024-03-22T20:26:39;10.70;99.90
7317;DHT22;3699;51.462;6.696;2024-03-22T20:29:06;10.70;99.90
7317;DHT22;3699;51.462;6.696;2024-03-22T20:31:32;10.60;99.90
7317;DHT22;3699;51.462;6.696;2024-03-22T20:34:04;10.60;99.90
7317;DHT22;3699;51.462;6.696;2024-03-22T20:36:30;10.90;99.90
